| time (UTC) | temp F | wind direction | speed knots | gust knots | rain 1hr in | rain 24hr in | rain mn in | humidity % | barometer mb |
| 20260507122021 | 58 | 288 | 1.7 | 4.3 | 0.00 | 0.04 | 0.01 | 67 | 1016.4 |
| 20260507121022 | 56 | 354 | 0.0 | 1.7 | 0.00 | 0.04 | 0.01 | 71 | 1016.4 |
| 20260507120022 | 57 | 305 | 0.9 | 4.3 | 0.00 | 0.04 | 0.01 | 70 | 1016.5 |
| 20260507115042 | 56 | 331 | 0.9 | 4.3 | 0.00 | 0.04 | 0.01 | 72 | 1016.4 |
| 20260507114043 | 56 | 316 | 0.0 | 1.7 | 0.00 | 0.04 | 0.01 | 72 | 1016.3 |
| 20260507113024 | 55 | 357 | 0.9 | 2.6 | 0.00 | 0.04 | 0.01 | 73 | 1016.3 |
| 20260507112024 | 55 | 39 | 0.9 | 4.3 | 0.00 | 0.04 | 0.01 | 73 | 1016.3 |
| 20260507111044 | 54 | 321 | 0.0 | 0.9 | 0.00 | 0.04 | 0.01 | 74 | 1016.3 |
| 20260507110024 | 54 | 338 | 0.9 | 4.3 | 0.00 | 0.04 | 0.01 | 74 | 1016.2 |
| 20260507105027 | 54 | 333 | 0.0 | 1.7 | 0.00 | 0.04 | 0.01 | 75 | 1016.2 |
| 20260507104026 | 53 | 357 | 0.0 | 1.7 | 0.00 | 0.04 | 0.01 | 75 | 1016.2 |
| 20260507103026 | 53 | 7 | 0.0 | 2.6 | 0.00 | 0.04 | 0.01 | 75 | 1016.2 |
| 20260507102022 | 54 | 10 | 0.9 | 1.7 | 0.00 | 0.04 | 0.01 | 74 | 1016.1 |
| 20260507101023 | 55 | 306 | 0.0 | 2.6 | 0.00 | 0.04 | 0.01 | 72 | 1016.2 |
| 20260507100023 | 54 | 313 | 0.9 | 1.7 | 0.00 | 0.04 | 0.01 | 73 | 1016.0 |
| 20260507095024 | 54 | 327 | 0.9 | 4.3 | 0.00 | 0.04 | 0.01 | 73 | 1015.9 |
| 20260507094104 | 55 | 313 | 0.9 | 4.3 | 0.00 | 0.04 | 0.01 | 72 | 1015.8 |
| 20260507093024 | 54 | 308 | 1.7 | 5.2 | 0.00 | 0.04 | 0.01 | 74 | 1015.7 |
| 20260507092025 | 52 | 354 | 0.0 | 1.7 | 0.00 | 0.04 | 0.01 | 78 | 1015.8 |
| 20260507091025 | 51 | 342 | 0.0 | 1.7 | 0.00 | 0.04 | 0.01 | 79 | 1015.6 |
| 20260507090026 | 51 | 64 | 0.9 | 2.6 | 0.00 | 0.04 | 0.01 | 78 | 1015.5 |
| 20260507085026 | 52 | 307 | 0.9 | 2.6 | 0.00 | 0.04 | 0.01 | 79 | 1015.4 |
| 20260507084027 | 51 | 339 | 0.0 | 2.6 | 0.00 | 0.04 | 0.01 | 82 | 1015.4 |
| 20260507083027 | 51 | 301 | 0.0 | 2.6 | 0.00 | 0.04 | 0.01 | 81 | 1015.3 |
| 20260507082027 | 51 | 301 | 0.0 | 4.3 | 0.00 | 0.04 | 0.01 | 82 | 1015.3 |
| 20260507081028 | 50 | 357 | 0.9 | 1.7 | 0.00 | 0.04 | 0.01 | 84 | 1015.1 |
| 20260507080028 | 50 | 323 | 0.0 | 2.6 | 0.00 | 0.04 | 0.01 | 86 | 1015.0 |
| 20260507075029 | 51 | 284 | 0.9 | 2.6 | 0.00 | 0.04 | 0.01 | 85 | 1014.8 |
| 20260507074029 | 50 | 289 | 1.7 | 4.3 | 0.00 | 0.04 | 0.01 | 86 | 1014.8 |
| 20260507073049 | 50 | 293 | 0.9 | 1.7 | 0.00 | 0.04 | 0.01 | 88 | 1014.7 |
| 20260507072050 | 49 | 280 | 0.9 | 1.7 | 0.00 | 0.04 | 0.01 | 89 | 1014.5 |
| 20260507071030 | 49 | 283 | 0.9 | 1.7 | 0.00 | 0.04 | 0.01 | 90 | 1014.5 |
| 20260507070030 | 49 | 273 | 0.9 | 2.6 | 0.00 | 0.04 | 0.01 | 91 | 1014.5 |
| 20260507065031 | 48 | 282 | 0.9 | 1.7 | 0.00 | 0.04 | 0.01 | 91 | 1014.5 |
| 20260507064031 | 48 | 294 | 0.9 | 1.7 | 0.00 | 0.04 | 0.01 | 92 | 1014.4 |
| 20260507063032 | 48 | 276 | 0.9 | 1.7 | 0.00 | 0.04 | 0.01 | 92 | 1014.3 |
| 20260507062032 | 48 | 295 | 0.9 | 1.7 | 0.00 | 0.04 | 0.01 | 93 | 1014.1 |
| 20260507061033 | 48 | 291 | 0.0 | 1.7 | 0.00 | 0.04 | 0.01 | 93 | 1014.2 |
| 20260507060033 | 48 | 289 | 0.0 | 0.9 | 0.00 | 0.04 | 0.01 | 93 | 1014.0 |
| 20260507055033 | 48 | 291 | 0.0 | 0.9 | 0.00 | 0.04 | 0.01 | 93 | 1013.8 |
| 20260507054054 | 48 | 280 | 0.0 | 0.9 | 0.00 | 0.04 | 0.01 | 93 | 1013.7 |
| 20260507053034 | 48 | 0.0 | 0.0 | 0.00 | 0.04 | 0.01 | 93 | 1013.6 | |
| 20260507052035 | 48 | 0.0 | 0.9 | 0.00 | 0.04 | 0.01 | 94 | 1013.5 | |
| 20260507051035 | 48 | 0.0 | 0.0 | 0.00 | 0.04 | 0.01 | 93 | 1013.3 | |
| 20260507050036 | 48 | 0.0 | 0.0 | 0.00 | 0.04 | 0.01 | 93 | 1013.2 | |
| 20260507045036 | 48 | 300 | 0.0 | 0.9 | 0.00 | 0.04 | 0.01 | 93 | 1013.0 |
| 20260507044036 | 48 | 291 | 0.0 | 0.9 | 0.00 | 0.04 | 0.01 | 93 | 1013.0 |
| 20260507043117 | 48 | 283 | 0.0 | 0.9 | 0.00 | 0.04 | 0.01 | 93 | 1012.8 |
| 20260507042037 | 48 | 279 | 0.0 | 1.7 | 0.00 | 0.04 | 0.01 | 93 | 1012.8 |
| 20260507041037 | 48 | 287 | 0.0 | 0.9 | 0.00 | 0.04 | 0.01 | 93 | 1012.6 |
| 20260507040038 | 48 | 282 | 0.0 | 1.7 | 0.00 | 0.04 | 0.01 | 93 | 1012.7 |
| 20260507035038 | 48 | 0.0 | 0.0 | 0.00 | 0.04 | 0.01 | 93 | 1012.7 | |
| 20260507034039 | 48 | 290 | 0.0 | 0.9 | 0.00 | 0.04 | 0.01 | 93 | 1012.6 |
| 20260507033039 | 48 | 286 | 0.0 | 1.7 | 0.00 | 0.04 | 0.01 | 93 | 1012.7 |
| 20260507032040 | 48 | 289 | 0.0 | 0.9 | 0.00 | 0.04 | 0.01 | 92 | 1012.6 |
| 20260507031040 | 48 | 284 | 0.9 | 2.6 | 0.00 | 0.04 | 0.01 | 92 | 1012.5 |
| 20260507030041 | 48 | 303 | 0.0 | 1.7 | 0.00 | 0.04 | 0.01 | 93 | 1012.5 |
| 20260507025101 | 48 | 290 | 0.0 | 0.9 | 0.00 | 0.04 | 0.01 | 92 | 1012.5 |
| 20260507024041 | 48 | 278 | 0.0 | 1.7 | 0.00 | 0.04 | 0.01 | 92 | 1012.5 |
| 20260507023042 | 48 | 292 | 0.0 | 1.7 | 0.00 | 0.04 | 0.01 | 92 | 1012.3 |
| 20260507022042 | 48 | 301 | 0.0 | 1.7 | 0.00 | 0.04 | 0.01 | 93 | 1012.3 |
| 20260507021043 | 48 | 0.0 | 0.9 | 0.00 | 0.04 | 0.01 | 94 | 1012.2 | |
| 20260507015043 | 48 | 288 | 0.0 | 1.7 | 0.00 | 0.04 | 0.01 | 95 | 1012.0 |
| 20260507014044 | 48 | 275 | 0.0 | 0.9 | 0.00 | 0.04 | 0.01 | 95 | 1012.0 |
| 20260507013104 | 48 | 0.0 | 0.0 | 0.00 | 0.04 | 0.01 | 94 | 1011.8 | |
| 20260507012017 | 48 | 0.0 | 0.0 | 0.00 | 0.04 | 0.01 | 94 | 1011.8 | |
| 20260507011037 | 48 | 0.0 | 0.0 | 0.00 | 0.04 | 0.01 | 94 | 1011.7 | |
| 20260507010018 | 48 | 0.0 | 0.0 | 0.00 | 0.04 | 0.01 | 93 | 1011.7 | |
| 20260507005018 | 48 | 0.0 | 0.0 | 0.00 | 0.04 | 0.01 | 93 | 1011.7 | |
| 20260507004018 | 48 | 0.0 | 0.0 | 0.00 | 0.04 | 0.01 | 93 | 1011.7 | |
| 20260507003019 | 48 | 291 | 0.0 | 1.7 | 0.00 | 0.04 | 0.01 | 93 | 1011.7 |
| 20260507002039 | 48 | 0.0 | 0.0 | 0.00 | 0.04 | 0.01 | 93 | 1011.6 | |
| 20260507001020 | 48 | 0.0 | 0.0 | 0.00 | 0.04 | 0.01 | 92 | 1011.6 | |
| 20260507000040 | 48 | 299 | 0.0 | 0.9 | 0.00 | 0.04 | 0.01 | 92 | 1011.6 |
| 20260506235021 | 48 | 0.0 | 0.9 | 0.00 | 0.04 | 0.01 | 92 | 1011.6 | |
| 20260506234021 | 48 | 303 | 0.0 | 1.7 | 0.00 | 0.04 | 0.01 | 92 | 1011.5 |
| 20260506233021 | 48 | 304 | 0.0 | 1.7 | 0.01 | 0.04 | 0.01 | 92 | 1011.5 |
| 20260506232021 | 49 | 284 | 0.0 | 2.6 | 0.01 | 0.04 | 0.01 | 92 | 1011.4 |
| 20260506231022 | 49 | 307 | 0.0 | 1.7 | 0.01 | 0.04 | 0.01 | 93 | 1011.4 |
| 20260506230023 | 49 | 325 | 0.0 | 2.6 | 0.01 | 0.04 | 0.01 | 93 | 1011.3 |
| 20260506225023 | 49 | 300 | 0.0 | 2.6 | 0.01 | 0.04 | 0.01 | 94 | 1011.3 |
| 20260506224023 | 49 | 0.0 | 0.0 | 0.01 | 0.04 | 0.01 | 94 | 1011.2 | |
| 20260506223023 | 49 | 331 | 0.0 | 0.9 | 0.00 | 0.03 | 0.00 | 94 | 1011.0 |
| 20260506222024 | 49 | 310 | 0.0 | 0.9 | 0.01 | 0.03 | 0.00 | 94 | 1010.9 |
| 20260506221045 | 49 | 350 | 0.0 | 0.9 | 0.01 | 0.03 | 0.00 | 94 | 1010.8 |
| 20260506220025 | 49 | 320 | 0.0 | 0.9 | 0.01 | 0.03 | 0.00 | 94 | 1010.8 |
| 20260506215025 | 50 | 315 | 0.9 | 1.7 | 0.01 | 0.03 | 0.03 | 94 | 1010.7 |
| 20260506214025 | 50 | 309 | 0.0 | 1.7 | 0.01 | 0.03 | 0.03 | 94 | 1010.7 |
| 20260506213026 | 50 | 317 | 0.0 | 0.9 | 0.01 | 0.03 | 0.03 | 93 | 1010.6 |
| 20260506212026 | 51 | 0.0 | 0.9 | 0.00 | 0.02 | 0.02 | 92 | 1010.3 | |
| 20260506211027 | 51 | 358 | 0.0 | 0.9 | 0.00 | 0.02 | 0.02 | 91 | 1010.3 |
| 20260506210028 | 51 | 0.0 | 0.0 | 0.00 | 0.02 | 0.02 | 90 | 1010.2 | |
| 20260506205028 | 52 | 322 | 0.0 | 0.9 | 0.00 | 0.03 | 0.02 | 90 | 1010.1 |
| 20260506204028 | 52 | 0.0 | 0.0 | 0.00 | 0.03 | 0.02 | 90 | 1010.1 | |
| 20260506203028 | 52 | 297 | 0.0 | 0.9 | 0.00 | 0.03 | 0.02 | 90 | 1010.1 |
| 20260506202049 | 51 | 0.0 | 0.0 | 0.00 | 0.04 | 0.02 | 90 | 1009.9 | |
| 20260506201029 | 52 | 0.0 | 0.0 | 0.00 | 0.04 | 0.02 | 89 | 1009.8 | |
| 20260506200110 | 52 | 0.0 | 0.9 | 0.00 | 0.04 | 0.02 | 89 | 1009.7 | |
| 20260506195030 | 52 | 312 | 0.0 | 0.9 | 0.00 | 0.04 | 0.02 | 89 | 1009.8 |
| 20260506194030 | 52 | 303 | 0.0 | 1.7 | 0.00 | 0.04 | 0.02 | 90 | 1009.7 |
| 20260506193051 | 52 | 0.0 | 0.0 | 0.00 | 0.05 | 0.02 | 90 | 1009.5 | |
| 20260506192032 | 52 | 0.0 | 0.0 | 0.00 | 0.06 | 0.02 | 90 | 1009.5 | |
| 20260506191032 | 52 | 16 | 0.0 | 0.9 | 0.00 | 0.07 | 0.02 | 89 | 1009.3 |
| 20260506190033 | 52 | 336 | 0.0 | 1.7 | 0.00 | 0.07 | 0.02 | 89 | 1009.1 |
| 20260506185033 | 53 | 332 | 0.0 | 0.9 | 0.00 | 0.07 | 0.02 | 89 | 1009.1 |
| 20260506184033 | 53 | 0.0 | 0.9 | 0.00 | 0.08 | 0.02 | 89 | 1008.8 | |
| 20260506183034 | 53 | 314 | 0.0 | 2.6 | 0.00 | 0.08 | 0.02 | 88 | 1008.6 |
| 20260506182034 | 53 | 312 | 0.9 | 2.6 | 0.00 | 0.08 | 0.02 | 88 | 1008.5 |
| 20260506181034 | 54 | 314 | 0.0 | 1.7 | 0.00 | 0.08 | 0.02 | 86 | 1008.3 |
| 20260506180035 | 54 | 307 | 0.0 | 1.7 | 0.00 | 0.08 | 0.02 | 86 | 1008.3 |
| 20260506175035 | 54 | 307 | 0.0 | 1.7 | 0.00 | 0.08 | 0.02 | 87 | 1008.2 |
| 20260506174035 | 55 | 330 | 0.9 | 4.3 | 0.00 | 0.08 | 0.02 | 88 | 1008.1 |
| 20260506173020 | 54 | 310 | 0.0 | 1.7 | 0.00 | 0.08 | 0.02 | 91 | 1008.0 |
| 20260506172036 | 54 | 357 | 0.0 | 0.9 | 0.00 | 0.08 | 0.02 | 91 | 1008.0 |
| 20260506171021 | 54 | 0.0 | 0.0 | 0.00 | 0.08 | 0.02 | 91 | 1008.0 | |
| 20260506170021 | 54 | 18 | 0.9 | 2.6 | 0.00 | 0.08 | 0.02 | 91 | 1007.8 |
| 20260506165118 | 55 | 350 | 0.0 | 1.7 | 0.02 | 0.08 | 0.02 | 89 | 1007.8 |
| 20260506164022 | 56 | 308 | 0.0 | 1.7 | 0.02 | 0.08 | 0.02 | 91 | 1007.9 |
| 20260506163038 | 57 | 303 | 0.0 | 0.9 | 0.02 | 0.08 | 0.02 | 90 | 1007.9 |
| 20260506162023 | 57 | 297 | 0.0 | 1.7 | 0.02 | 0.08 | 0.02 | 90 | 1007.7 |
| 20260506161040 | 57 | 294 | 0.0 | 0.9 | 0.02 | 0.08 | 0.02 | 90 | 1007.7 |
| 20260506160024 | 57 | 305 | 0.0 | 0.9 | 0.02 | 0.08 | 0.02 | 88 | 1007.7 |
| 20260506155040 | 58 | 299 | 0.0 | 0.9 | 0.00 | 0.06 | 0.00 | 86 | 1007.7 |
| 20260506154044 | 58 | 298 | 0.9 | 4.3 | 0.00 | 0.06 | 0.00 | 84 | 1007.8 |
| 20260506153041 | 59 | 289 | 1.7 | 5.2 | 0.00 | 0.06 | 0.00 | 79 | 1007.7 |
| 20260506152105 | 58 | 297 | 1.7 | 6.1 | 0.00 | 0.06 | 0.00 | 80 | 1007.7 |
| 20260506151042 | 59 | 289 | 1.7 | 5.2 | 0.00 | 0.06 | 0.00 | 80 | 1007.7 |
| 20260506150026 | 61 | 276 | 3.5 | 8.7 | 0.00 | 0.06 | 0.00 | 71 | 1007.4 |
| 20260506145043 | 62 | 307 | 1.7 | 6.1 | 0.00 | 0.06 | 0.00 | 67 | 1007.0 |
| 20260506144027 | 62 | 285 | 1.7 | 5.2 | 0.00 | 0.06 | 0.00 | 67 | 1007.0 |
| 20260506143043 | 62 | 300 | 2.6 | 4.3 | 0.00 | 0.06 | 0.00 | 68 | 1007.0 |
| 20260506142048 | 61 | 288 | 1.7 | 5.2 | 0.00 | 0.06 | 0.00 | 69 | 1006.9 |
| 20260506141044 | 61 | 261 | 1.7 | 6.1 | 0.00 | 0.07 | 0.00 | 69 | 1007.0 |
| 20260506140029 | 62 | 266 | 1.7 | 5.2 | 0.00 | 0.08 | 0.00 | 67 | 1006.8 |
| 20260506135045 | 63 | 276 | 1.7 | 6.1 | 0.00 | 0.08 | 0.00 | 65 | 1006.9 |
| 20260506134030 | 65 | 275 | 1.7 | 6.1 | 0.00 | 0.09 | 0.00 | 63 | 1006.8 |
| 20260506133046 | 65 | 250 | 2.6 | 5.2 | 0.00 | 0.09 | 0.00 | 63 | 1006.9 |
| 20260506132030 | 64 | 259 | 1.7 | 4.3 | 0.00 | 0.09 | 0.00 | 65 | 1007.0 |
| 20260506131107 | 65 | 268 | 1.7 | 5.2 | 0.00 | 0.10 | 0.00 | 63 | 1007.0 |
| 20260506130031 | 64 | 280 | 2.6 | 6.1 | 0.00 | 0.10 | 0.00 | 65 | 1007.1 |
| 20260506125032 | 65 | 281 | 2.6 | 7.0 | 0.00 | 0.10 | 0.00 | 65 | 1007.1 |
| 20260506124032 | 61 | 280 | 2.6 | 4.3 | 0.00 | 0.10 | 0.00 | 71 | 1007.2 |
| 20260506123052 | 60 | 283 | 1.7 | 7.0 | 0.00 | 0.10 | 0.00 | 73 | 1007.3 |